
Distance (Route):
Temperature : -23.7°C
Humidity : 14.3%
Pressure : 367.2hPa| Receiver | Frames | First received | Last received |
|---|---|---|---|
| AUTORXJP | 100 | 2026-08-30 12:23:32 | 2026-08-30 13:18:26 |
| Receiver | Date | Latitude | Longitude | Direction | Speed | Altitude | Climb | Temperature | Humidity | Pressure | Voltage | Killtimer | Uptime | BKT | XDATA |
|---|---|---|---|---|---|---|---|---|---|---|---|---|---|---|---|
| AUTORXJP | 2026-08-30 13:18:26 | 43.92074 | 5.22102 | 80° | 60km/h | 8220m | -10.3m/s | -23.7°C | 14.3% | 367.2hPa | 0V | 00:00:00 | 00:00:00 | 00:00:00 | |
| AUTORXJP | 2026-08-30 13:17:54 | 43.92022 | 5.21707 | 75° | 57km/h | 8446m | -10.7m/s | -25.3°C | 21.6% | 356.1hPa | 0V | 00:00:00 | 00:00:00 | 00:00:00 | |
| AUTORXJP | 2026-08-30 13:17:23 | 43.91922 | 5.21057 | 77° | 62km/h | 8796m | -11.2m/s | -28.4°C | 27.1% | 339.1hPa | 0V | 00:00:00 | 00:00:00 | 00:00:00 | |
| AUTORXJP | 2026-08-30 13:16:52 | 43.91865 | 5.20363 | 90° | 68km/h | 9155m | -10.1m/s | -31.2°C | 24.4% | 322.4hPa | 0V | 00:00:00 | 00:00:00 | 00:00:00 | |
| AUTORXJP | 2026-08-30 13:16:21 | 43.91868 | 5.19639 | 90° | 64km/h | 9521m | -11.2m/s | -34.0°C | 23.9% | 305.9hPa | 0V | 00:00:00 | 00:00:00 | 00:00:00 | |
| AUTORXJP | 2026-08-30 13:15:50 | 43.91894 | 5.18875 | 91° | 69km/h | 9888m | -11.0m/s | -37.0°C | 27.3% | 290.1hPa | 0V | 00:00:00 | 00:00:00 | 00:00:00 | |
| AUTORXJP | 2026-08-30 13:15:19 | 43.91968 | 5.18045 | 98° | 77km/h | 10278m | -12.4m/s | -40.1°C | 27.1% | 274.2hPa | 0V | 00:00:00 | 00:00:00 | 00:00:00 | |
| AUTORXJP | 2026-08-30 13:14:48 | 43.92080 | 5.17191 | 102° | 78km/h | 10674m | -11.4m/s | -42.9°C | 24.5% | 258.5hPa | 0V | 00:00:00 | 00:00:00 | 00:00:00 | |
| AUTORXJP | 2026-08-30 13:14:17 | 43.92199 | 5.16376 | 102° | 78km/h | 11108m | -13.4m/s | -46.1°C | 25.8% | 242.3hPa | 0V | 00:00:00 | 00:00:00 | 00:00:00 | |
| AUTORXJP | 2026-08-30 13:13:46 | 43.92403 | 5.15549 | 111° | 84km/h | 11563m | -14.3m/s | -49.4°C | 28.9% | 226.1hPa | 0V | 00:00:00 | 00:00:00 | 00:00:00 | |
| AUTORXJP | 2026-08-30 13:13:15 | 43.92725 | 5.14620 | 118° | 106km/h | 12034m | -14.8m/s | -53.2°C | 29.1% | 210.1hPa | 0V | 00:00:00 | 00:00:00 | 00:00:00 | |
| AUTORXJP | 2026-08-30 13:12:44 | 43.93182 | 5.13582 | 123° | 108km/h | 12507m | -14.3m/s | -56.9°C | 22.3% | 195.2hPa | 0V | 00:00:00 | 00:00:00 | 00:00:00 | |
| AUTORXJP | 2026-08-30 13:12:13 | 43.93553 | 5.12623 | 112° | 93km/h | 12988m | -14.6m/s | -59.8°C | 14.1% | 180.8hPa | 0V | 00:00:00 | 00:00:00 | 00:00:00 | |
| AUTORXJP | 2026-08-30 13:11:41 | 43.93770 | 5.11666 | 94° | 80km/h | 13522m | -16.2m/s | -62.4°C | 5.9% | 165.9hPa | 0V | 00:00:00 | 00:00:00 | 00:00:00 | |
| AUTORXJP | 2026-08-30 13:11:10 | 43.93771 | 5.10785 | 88° | 82km/h | 14038m | -13.0m/s | -62.6°C | 1.7% | 152.5hPa | 0V | 00:00:00 | 00:00:00 | 00:00:00 | |
| AUTORXJP | 2026-08-30 13:10:39 | 43.93746 | 5.09961 | 77° | 69km/h | 14595m | -14.9m/s | -61.4°C | 0.0% | 139.3hPa | 0V | 00:00:00 | 00:00:00 | 00:00:00 | |
| AUTORXJP | 2026-08-30 13:10:08 | 43.93691 | 5.09089 | 92° | 84km/h | 15176m | -17.6m/s | -61.6°C | 0.0% | 126.8hPa | 0V | 00:00:00 | 00:00:00 | 00:00:00 | |
| AUTORXJP | 2026-08-30 13:09:37 | 43.93694 | 5.08404 | 69° | 58km/h | 15751m | -18.2m/s | -58.7°C | 0.0% | 115.5hPa | 0V | 00:00:00 | 00:00:00 | 00:00:00 | |
| AUTORXJP | 2026-08-30 13:09:06 | 43.93620 | 5.07891 | 87° | 35km/h | 16354m | -18.2m/s | -60.8°C | 0.0% | 104.8hPa | 0V | 00:00:00 | 00:00:00 | 00:00:00 | |
| AUTORXJP | 2026-08-30 13:08:35 | 43.93541 | 5.07597 | 34° | 33km/h | 16964m | -19.7m/s | -61.4°C | 0.0% | 94.9hPa | 0V | 00:00:00 | 00:00:00 | 00:00:00 | |
| AUTORXJP | 2026-08-30 13:08:04 | 43.93360 | 5.07266 | 59° | 26km/h | 17619m | -18.3m/s | -56.6°C | 0.0% | 85.5hPa | 0V | 00:00:00 | 00:00:00 | 00:00:00 | |
| AUTORXJP | 2026-08-30 13:07:33 | 43.93228 | 5.07028 | 62° | 22km/h | 18245m | -18.2m/s | -56.9°C | 0.0% | 77.4hPa | 0V | 00:00:00 | 00:00:00 | 00:00:00 | |
| AUTORXJP | 2026-08-30 13:07:02 | 43.93229 | 5.06801 | 45° | 15km/h | 18891m | -19.4m/s | -56.3°C | 0.0% | 69.9hPa | 0V | 00:00:00 | 00:00:00 | 00:00:00 | |
| AUTORXJP | 2026-08-30 13:06:31 | 43.93152 | 5.06624 | 161° | 4km/h | 19544m | -21.6m/s | -56.4°C | 0.0% | 63.0hPa | 0V | 00:00:00 | 00:00:00 | 00:00:00 | |
| AUTORXJP | 2026-08-30 13:06:00 | 43.93130 | 5.06647 | 317° | 16km/h | 20236m | -24.2m/s | -54.4°C | 0.0% | 56.5hPa | 0V | 00:00:00 | 00:00:00 | 00:00:00 | |
| AUTORXJP | 2026-08-30 13:05:28 | 43.93013 | 5.06649 | 134° | 5km/h | 21219m | -22.3m/s | -54.1°C | 0.0% | 48.4hPa | 0V | 00:00:00 | 00:00:00 | 00:00:00 | |
| AUTORXJP | 2026-08-30 13:04:57 | 43.93040 | 5.06643 | 243° | 15km/h | 22003m | -22.5m/s | -54.7°C | 0.0% | 42.8hPa | 0V | 00:00:00 | 00:00:00 | 00:00:00 | |
| AUTORXJP | 2026-08-30 13:02:53 | 43.92625 | 5.07202 | 328° | 20km/h | 25376m | -24.8m/s | -49.9°C | 0.0% | 25.2hPa | 0V | 00:00:00 | 00:00:00 | 00:00:00 | |
| AUTORXJP | 2026-08-30 13:02:22 | 43.92591 | 5.07191 | 352° | 4km/h | 25730m | -28.3m/s | -49.3°C | 0.0% | 23.9hPa | 0V | 00:00:00 | 00:00:00 | 00:00:00 | |
| AUTORXJP | 2026-08-30 13:01:51 | 43.92527 | 5.07245 | 1° | 16km/h | 26603m | -25.4m/s | -49.1°C | 0.0% | 20.9hPa | 0V | 00:00:00 | 00:00:00 | 00:00:00 | |
| AUTORXJP | 2026-08-30 13:00:49 | 43.92464 | 5.07258 | 164° | 5km/h | 28865m | -28.9m/s | -45.4°C | 0.0% | 14.7hPa | 0V | 00:00:00 | 00:00:00 | 00:00:00 | |
| AUTORXJP | 2026-08-30 13:00:18 | 43.92302 | 5.07377 | 346° | 40km/h | 29885m | -55.4m/s | -43.8°C | 0.0% | 12.5hPa | 0V | 00:00:00 | 00:00:00 | 00:00:00 | |
| AUTORXJP | 2026-08-30 12:59:47 | 43.92081 | 5.07473 | 333° | 38km/h | 30109m | 5.1m/s | -43.5°C | 0.0% | 12.2hPa | 0V | 00:00:00 | 00:00:00 | 00:00:00 | |
| AUTORXJP | 2026-08-30 12:59:16 | 43.91868 | 5.07604 | 7° | 16km/h | 29935m | 6.8m/s | -44.0°C | 0.0% | 12.5hPa | 0V | 00:00:00 | 00:00:00 | 00:00:00 | |
| AUTORXJP | 2026-08-30 12:58:45 | 43.91742 | 5.07748 | 329° | 20km/h | 29759m | 5.5m/s | -43.6°C | 0.0% | 12.9hPa | 0V | 00:00:00 | 00:00:00 | 00:00:00 | |
| AUTORXJP | 2026-08-30 12:58:13 | 43.91625 | 5.07943 | 279° | 16km/h | 29577m | 4.8m/s | -44.0°C | 0.0% | 13.2hPa | 0V | 00:00:00 | 00:00:00 | 00:00:00 | |
| AUTORXJP | 2026-08-30 12:57:42 | 43.91506 | 5.08029 | 1° | 31km/h | 29389m | 5.8m/s | -44.3°C | 0.0% | 13.6hPa | 0V | 00:00:00 | 00:00:00 | 00:00:00 | |
| AUTORXJP | 2026-08-30 12:57:11 | 43.91361 | 5.08081 | 358° | 31km/h | 29213m | 6.4m/s | -44.9°C | 0.0% | 14.0hPa | 0V | 00:00:00 | 00:00:00 | 00:00:00 | |
| AUTORXJP | 2026-08-30 12:56:40 | 43.91233 | 5.08216 | 295° | 22km/h | 29039m | 5.2m/s | -45.2°C | 0.0% | 14.4hPa | 0V | 00:00:00 | 00:00:00 | 00:00:00 | |
| AUTORXJP | 2026-08-30 12:56:09 | 43.91224 | 5.08271 | 130° | 9km/h | 28871m | 4.7m/s | -45.0°C | 0.0% | 14.8hPa | 0V | 00:00:00 | 00:00:00 | 00:00:00 | |
| AUTORXJP | 2026-08-30 12:55:38 | 43.91253 | 5.08241 | 115° | 5km/h | 28711m | 4.0m/s | -44.8°C | 0.0% | 15.1hPa | 0V | 00:00:00 | 00:00:00 | 00:00:00 | |
| AUTORXJP | 2026-08-30 12:55:07 | 43.91277 | 5.08278 | 333° | 18km/h | 28549m | 5.0m/s | -45.2°C | 0.0% | 15.5hPa | 0V | 00:00:00 | 00:00:00 | 00:00:00 | |
| AUTORXJP | 2026-08-30 12:54:36 | 43.91246 | 5.08308 | 15° | 11km/h | 28385m | 5.3m/s | -45.3°C | 0.0% | 15.9hPa | 0V | 00:00:00 | 00:00:00 | 00:00:00 | |
| AUTORXJP | 2026-08-30 12:54:05 | 43.91170 | 5.08307 | 98° | 9km/h | 28225m | 4.3m/s | -46.3°C | 0.0% | 16.3hPa | 0V | 00:00:00 | 00:00:00 | 00:00:00 | |
| AUTORXJP | 2026-08-30 12:53:34 | 43.91119 | 5.08406 | 254° | 11km/h | 28054m | 6.3m/s | -47.3°C | 0.0% | 16.7hPa | 0V | 00:00:00 | 00:00:00 | 00:00:00 | |
| AUTORXJP | 2026-08-30 12:53:03 | 43.91140 | 5.08462 | 294° | 16km/h | 27881m | 4.2m/s | -47.3°C | 0.0% | 17.2hPa | 0V | 00:00:00 | 00:00:00 | 00:00:00 | |
| AUTORXJP | 2026-08-30 12:52:32 | 43.91137 | 5.08465 | 177° | 7km/h | 27711m | 4.2m/s | -47.3°C | 0.0% | 17.7hPa | 0V | 00:00:00 | 00:00:00 | 00:00:00 | |
| AUTORXJP | 2026-08-30 12:52:01 | 43.91082 | 5.08432 | 31° | 9km/h | 27540m | 5.3m/s | -47.4°C | 0.0% | 18.1hPa | 0V | 00:00:00 | 00:00:00 | 00:00:00 | |
| AUTORXJP | 2026-08-30 12:51:30 | 43.90995 | 5.08355 | 52° | 13km/h | 27367m | 5.0m/s | -47.9°C | 0.0% | 18.6hPa | 0V | 00:00:00 | 00:00:00 | 00:00:00 | |
| AUTORXJP | 2026-08-30 12:50:58 | 43.90900 | 5.08354 | 297° | 9km/h | 27200m | 5.7m/s | -48.2°C | 0.0% | 19.1hPa | 0V | 00:00:00 | 00:00:00 | 00:00:00 | |
| AUTORXJP | 2026-08-30 12:50:27 | 43.90864 | 5.08459 | 228° | 13km/h | 27023m | 6.6m/s | -48.8°C | 0.0% | 19.6hPa | 0V | 00:00:00 | 00:00:00 | 00:00:00 | |
| AUTORXJP | 2026-08-30 12:49:56 | 43.90840 | 5.08512 | 283° | 4km/h | 26859m | 6.0m/s | -48.6°C | 0.0% | 20.1hPa | 0V | 00:00:00 | 00:00:00 | 00:00:00 | |
| AUTORXJP | 2026-08-30 12:49:25 | 43.90724 | 5.08498 | 24° | 31km/h | 26691m | 5.4m/s | -49.0°C | 0.0% | 20.7hPa | 0V | 00:00:00 | 00:00:00 | 00:00:00 | |
| AUTORXJP | 2026-08-30 12:48:54 | 43.90579 | 5.08475 | 322° | 13km/h | 26524m | 6.2m/s | -49.3°C | 0.0% | 21.2hPa | 0V | 00:00:00 | 00:00:00 | 00:00:00 | |
| AUTORXJP | 2026-08-30 12:48:23 | 43.90475 | 5.08492 | 353° | 20km/h | 26357m | 4.8m/s | -49.9°C | 0.0% | 21.8hPa | 0V | 00:00:00 | 00:00:00 | 00:00:00 | |
| AUTORXJP | 2026-08-30 12:47:52 | 43.90379 | 5.08537 | 336° | 16km/h | 26194m | 6.6m/s | -49.6°C | 0.0% | 22.3hPa | 0V | 00:00:00 | 00:00:00 | 00:00:00 | |
| AUTORXJP | 2026-08-30 12:47:21 | 43.90355 | 5.08652 | 274° | 18km/h | 26021m | 5.0m/s | -49.0°C | 0.0% | 22.9hPa | 0V | 00:00:00 | 00:00:00 | 00:00:00 | |
| AUTORXJP | 2026-08-30 12:46:50 | 43.90370 | 5.08814 | 264° | 13km/h | 25859m | 5.3m/s | -49.3°C | 0.0% | 23.5hPa | 0V | 00:00:00 | 00:00:00 | 00:00:00 | |
| AUTORXJP | 2026-08-30 12:46:19 | 43.90333 | 5.08800 | 78° | 9km/h | 25695m | 4.2m/s | -49.6°C | 0.0% | 24.1hPa | 0V | 00:00:00 | 00:00:00 | 00:00:00 | |
| AUTORXJP | 2026-08-30 12:45:48 | 43.90216 | 5.08760 | 335° | 18km/h | 25532m | 5.3m/s | -49.9°C | 0.0% | 24.7hPa | 0V | 00:00:00 | 00:00:00 | 00:00:00 | |
| AUTORXJP | 2026-08-30 12:45:18 | 43.90101 | 5.08870 | 261° | 13km/h | 25371m | 4.8m/s | -50.3°C | 0.0% | 25.4hPa | 0V | 00:00:00 | 00:00:00 | 00:00:00 | |
| AUTORXJP | 2026-08-30 12:44:45 | 43.90047 | 5.08937 | 181° | 2km/h | 25208m | 6.6m/s | -50.6°C | 0.0% | 26.0hPa | 0V | 00:00:00 | 00:00:00 | 00:00:00 | |
| AUTORXJP | 2026-08-30 12:44:15 | 43.89939 | 5.08979 | 304° | 13km/h | 25046m | 4.8m/s | -51.3°C | 0.0% | 26.7hPa | 0V | 00:00:00 | 00:00:00 | 00:00:00 | |
| AUTORXJP | 2026-08-30 12:43:43 | 43.89783 | 5.09072 | 311° | 22km/h | 24883m | 4.3m/s | -51.5°C | 0.0% | 27.4hPa | 0V | 00:00:00 | 00:00:00 | 00:00:00 | |
| AUTORXJP | 2026-08-30 12:43:12 | 43.89657 | 5.09227 | 338° | 13km/h | 24712m | 5.3m/s | -51.9°C | 0.0% | 28.1hPa | 0V | 00:00:00 | 00:00:00 | 00:00:00 | |
| AUTORXJP | 2026-08-30 12:42:41 | 43.89560 | 5.09399 | 281° | 11km/h | 24552m | 5.9m/s | -51.9°C | 0.0% | 28.8hPa | 0V | 00:00:00 | 00:00:00 | 00:00:00 | |
| AUTORXJP | 2026-08-30 12:42:10 | 43.89520 | 5.09511 | 330° | 13km/h | 24390m | 5.9m/s | -52.5°C | 0.0% | 29.6hPa | 0V | 00:00:00 | 00:00:00 | 00:00:00 | |
| AUTORXJP | 2026-08-30 12:41:39 | 43.89445 | 5.09499 | 9° | 16km/h | 24226m | 4.6m/s | -52.2°C | 0.0% | 30.3hPa | 0V | 00:00:00 | 00:00:00 | 00:00:00 | |
| AUTORXJP | 2026-08-30 12:40:37 | 43.89224 | 5.09530 | 309° | 11km/h | 23913m | 6.0m/s | -52.0°C | 0.0% | 31.8hPa | 0V | 00:00:00 | 00:00:00 | 00:00:00 | |
| AUTORXJP | 2026-08-30 12:40:06 | 43.89116 | 5.09624 | 332° | 22km/h | 23757m | 5.5m/s | -52.7°C | 0.0% | 32.6hPa | 0V | 00:00:00 | 00:00:00 | 00:00:00 | |
| AUTORXJP | 2026-08-30 12:39:35 | 43.89021 | 5.09791 | 312° | 26km/h | 23598m | 4.4m/s | -52.9°C | 0.0% | 33.4hPa | 0V | 00:00:00 | 00:00:00 | 00:00:00 | |
| AUTORXJP | 2026-08-30 12:39:04 | 43.88951 | 5.09975 | 274° | 11km/h | 23438m | 5.0m/s | -53.0°C | 0.0% | 34.2hPa | 0V | 00:00:00 | 00:00:00 | 00:00:00 | |
| AUTORXJP | 2026-08-30 12:38:33 | 43.88900 | 5.10073 | 8° | 18km/h | 23283m | 5.3m/s | -53.0°C | 0.0% | 35.1hPa | 0V | 00:00:00 | 00:00:00 | 00:00:00 | |
| AUTORXJP | 2026-08-30 12:38:02 | 43.88801 | 5.10081 | 342° | 20km/h | 23128m | 4.8m/s | -53.3°C | 0.0% | 36.0hPa | 0V | 00:00:00 | 00:00:00 | 00:00:00 | |
| AUTORXJP | 2026-08-30 12:37:30 | 43.88600 | 5.10178 | 330° | 33km/h | 22972m | 5.2m/s | -53.6°C | 0.0% | 36.9hPa | 0V | 00:00:00 | 00:00:00 | 00:00:00 | |
| AUTORXJP | 2026-08-30 12:36:28 | 43.88302 | 5.10728 | 264° | 35km/h | 22656m | 5.3m/s | -53.3°C | 0.0% | 38.7hPa | 0V | 00:00:00 | 00:00:00 | 00:00:00 | |
| AUTORXJP | 2026-08-30 12:35:57 | 43.88322 | 5.11094 | 244° | 31km/h | 22506m | 4.5m/s | -53.5°C | 0.0% | 39.6hPa | 0V | 00:00:00 | 00:00:00 | 00:00:00 | |
| AUTORXJP | 2026-08-30 12:35:26 | 43.88386 | 5.11395 | 253° | 26km/h | 22357m | 5.5m/s | -53.3°C | 0.0% | 40.6hPa | 0V | 00:00:00 | 00:00:00 | 00:00:00 | |
| AUTORXJP | 2026-08-30 12:34:55 | 43.88466 | 5.11534 | 252° | 13km/h | 22204m | 4.2m/s | -53.6°C | 0.0% | 41.6hPa | 0V | 00:00:00 | 00:00:00 | 00:00:00 | |
| AUTORXJP | 2026-08-30 12:34:24 | 43.88479 | 5.11572 | 231° | 9km/h | 22050m | 4.6m/s | -54.1°C | 0.0% | 42.6hPa | 0V | 00:00:00 | 00:00:00 | 00:00:00 | |
| AUTORXJP | 2026-08-30 12:33:22 | 43.88656 | 5.11700 | 188° | 4km/h | 21744m | 5.3m/s | -53.2°C | 0.0% | 44.7hPa | 0V | 00:00:00 | 00:00:00 | 00:00:00 | |
| AUTORXJP | 2026-08-30 12:32:51 | 43.88624 | 5.11668 | 357° | 16km/h | 21595m | 5.9m/s | -54.4°C | 0.0% | 45.7hPa | 0V | 00:00:00 | 00:00:00 | 00:00:00 | |
| AUTORXJP | 2026-08-30 12:32:20 | 43.88562 | 5.11698 | 204° | 9km/h | 21445m | 5.4m/s | -54.6°C | 0.0% | 46.8hPa | 0V | 00:00:00 | 00:00:00 | 00:00:00 | |
| AUTORXJP | 2026-08-30 12:31:49 | 43.88589 | 5.11654 | 84° | 7km/h | 21296m | 4.3m/s | -54.4°C | 0.0% | 48.0hPa | 0V | 00:00:00 | 00:00:00 | 00:00:00 | |
| AUTORXJP | 2026-08-30 12:31:18 | 43.88593 | 5.11610 | 321° | 15km/h | 21146m | 4.8m/s | -54.1°C | 0.0% | 49.1hPa | 0V | 00:00:00 | 00:00:00 | 00:00:00 | |
| AUTORXJP | 2026-08-30 12:30:46 | 43.88548 | 5.11649 | 351° | 9km/h | 20999m | 5.7m/s | -54.3°C | 0.0% | 50.2hPa | 0V | 00:00:00 | 00:00:00 | 00:00:00 | |
| AUTORXJP | 2026-08-30 12:30:16 | 43.88541 | 5.11642 | 98° | 16km/h | 20853m | 3.7m/s | -54.7°C | 0.0% | 51.4hPa | 0V | 00:00:00 | 00:00:00 | 00:00:00 | |
| AUTORXJP | 2026-08-30 12:29:45 | 43.88428 | 5.11591 | 2° | 22km/h | 20710m | 5.5m/s | -54.8°C | 0.0% | 52.6hPa | 0V | 00:00:00 | 00:00:00 | 00:00:00 | |
| AUTORXJP | 2026-08-30 12:29:13 | 43.88251 | 5.11662 | 339° | 20km/h | 20567m | 5.0m/s | -55.0°C | 0.0% | 53.8hPa | 0V | 00:00:00 | 00:00:00 | 00:00:00 | |
| AUTORXJP | 2026-08-30 12:28:43 | 43.88148 | 5.11855 | 299° | 26km/h | 20417m | 4.4m/s | -55.0°C | 0.0% | 55.0hPa | 0V | 00:00:00 | 00:00:00 | 00:00:00 | |
| AUTORXJP | 2026-08-30 12:28:11 | 43.88095 | 5.12018 | 249° | 4km/h | 20272m | 5.7m/s | -55.3°C | 0.0% | 56.3hPa | 0V | 00:00:00 | 00:00:00 | 00:00:00 | |
| AUTORXJP | 2026-08-30 12:27:40 | 43.88083 | 5.12123 | 201° | 5km/h | 20124m | 3.9m/s | -55.3°C | 0.0% | 57.6hPa | 0V | 00:00:00 | 00:00:00 | 00:00:00 | |
| AUTORXJP | 2026-08-30 12:27:09 | 43.88084 | 5.12136 | 131° | 5km/h | 19978m | 4.3m/s | -55.7°C | 0.0% | 59.0hPa | 0V | 00:00:00 | 00:00:00 | 00:00:00 | |
| AUTORXJP | 2026-08-30 12:26:38 | 43.88120 | 5.12113 | 232° | 0km/h | 19833m | 5.1m/s | -56.1°C | 0.0% | 60.3hPa | 0V | 00:00:00 | 00:00:00 | 00:00:00 | |
| AUTORXJP | 2026-08-30 12:26:07 | 43.88110 | 5.12156 | 3° | 0km/h | 19689m | 6.5m/s | -57.1°C | 0.0% | 61.7hPa | 0V | 00:00:00 | 00:00:00 | 00:00:00 | |
| AUTORXJP | 2026-08-30 12:25:36 | 43.88122 | 5.12112 | 56° | 11km/h | 19547m | 5.4m/s | -56.5°C | 0.0% | 63.1hPa | 0V | 00:00:00 | 00:00:00 | 00:00:00 | |
| AUTORXJP | 2026-08-30 12:25:05 | 43.88083 | 5.11935 | 65° | 26km/h | 19401m | 5.7m/s | -56.5°C | 0.0% | 64.6hPa | 0V | 00:00:00 | 00:00:00 | 00:00:00 | |
| AUTORXJP | 2026-08-30 12:24:34 | 43.87933 | 5.11687 | 45° | 35km/h | 19258m | 3.3m/s | -56.7°C | 0.0% | 66.0hPa | 0V | 00:00:00 | 00:00:00 | 00:00:00 | |
| AUTORXJP | 2026-08-30 12:24:03 | 43.87797 | 5.11487 | 43° | 20km/h | 19126m | 4.7m/s | -56.1°C | 0.0% | 67.5hPa | 0V | 00:00:00 | 00:00:00 | 00:00:00 | |
| AUTORXJP | 2026-08-30 12:23:32 | 43.87645 | 5.11363 | 42° | 20km/h | 18983m | 3.8m/s | -55.6°C | 0.0% | 69.0hPa | 0V | 00:00:00 | 00:00:00 | 00:00:00 |